createdAt,value
2022-11-17T00:00:30.389Z,2.43
2022-11-17T00:02:56.584Z,2.03
2022-11-17T00:05:22.824Z,1.50
2022-11-17T00:07:49.819Z,1.80
2022-11-17T00:10:16.655Z,1.80
2022-11-17T00:13:01.701Z,1.50
2022-11-17T00:15:27.975Z,1.47
2022-11-17T00:18:18.144Z,1.50
2022-11-17T00:21:02.842Z,1.60
2022-11-17T00:23:45.986Z,2.40
2022-11-17T00:26:13.932Z,1.30
2022-11-17T00:28:40.125Z,1.30
2022-11-17T00:31:24.442Z,1.37
2022-11-17T00:34:05.589Z,1.47
2022-11-17T00:36:33.572Z,1.40
2022-11-17T00:39:00.406Z,1.60
2022-11-17T00:41:27.929Z,1.57
2022-11-17T00:43:54.100Z,1.23
2022-11-17T00:46:20.259Z,1.30
2022-11-17T00:48:46.429Z,1.27
2022-11-17T00:51:12.566Z,1.07
2022-11-17T00:53:38.757Z,1.47
2022-11-17T00:56:05.886Z,1.63
2022-11-17T00:58:33.861Z,1.50
2022-11-17T01:01:00.010Z,1.50
2022-11-17T01:03:26.179Z,1.40
2022-11-17T01:05:52.352Z,1.30
2022-11-17T01:08:18.579Z,1.50
2022-11-17T01:10:44.772Z,1.30
2022-11-17T01:13:11.580Z,1.40
2022-11-17T01:15:37.799Z,1.27
2022-11-17T01:18:04.339Z,1.53
2022-11-17T01:20:30.522Z,1.40
2022-11-17T01:22:56.696Z,1.60
2022-11-17T01:25:22.850Z,1.43
2022-11-17T01:27:49.092Z,1.50
2022-11-17T01:30:17.407Z,1.73
2022-11-17T01:32:43.678Z,1.30
2022-11-17T01:35:09.834Z,1.30
2022-11-17T01:37:35.972Z,1.33
2022-11-17T01:40:02.231Z,1.60
2022-11-17T01:42:28.465Z,1.30
2022-11-17T01:45:00.041Z,1.70
2022-11-17T01:47:36.701Z,1.40
2022-11-17T01:50:08.203Z,1.70
2022-11-17T01:52:35.476Z,1.43
2022-11-17T01:55:02.696Z,1.50
2022-11-17T01:57:31.878Z,1.40
2022-11-17T02:00:00.711Z,1.60
2022-11-17T02:02:27.752Z,1.53
2022-11-17T02:04:58.026Z,1.40
2022-11-17T02:07:25.869Z,1.60
2022-11-17T02:09:53.059Z,1.60
2022-11-17T02:12:20.344Z,1.40
2022-11-17T02:14:48.664Z,1.57
2022-11-17T02:17:14.983Z,1.33
2022-11-17T02:19:42.950Z,1.27
2022-11-17T02:22:32.780Z,1.40
2022-11-17T02:25:26.851Z,1.60
2022-11-17T02:28:06.085Z,1.40
2022-11-17T02:30:35.502Z,1.40
2022-11-17T02:33:03.272Z,1.20
2022-11-17T02:35:36.475Z,1.37
2022-11-17T02:38:13.461Z,1.23
2022-11-17T02:40:42.140Z,1.33
2022-11-17T02:43:29.599Z,1.30
2022-11-17T02:45:58.618Z,1.23
2022-11-17T02:48:27.483Z,1.63
2022-11-17T02:50:54.097Z,1.23
2022-11-17T02:53:20.652Z,1.33
2022-11-17T02:55:50.627Z,1.67
2022-11-17T02:58:17.410Z,1.50
2022-11-17T03:00:49.172Z,1.50
2022-11-17T03:03:23.747Z,1.30
2022-11-17T03:05:56.838Z,1.30
2022-11-17T03:08:32.941Z,1.13
2022-11-17T03:11:01.820Z,1.67
2022-11-17T03:13:36.147Z,1.40
2022-11-17T03:16:10.088Z,1.37
2022-11-17T03:18:41.499Z,1.50
2022-11-17T03:21:10.970Z,1.50
2022-11-17T03:23:41.055Z,1.47
2022-11-17T03:26:09.973Z,1.60
2022-11-17T03:28:37.823Z,1.40
2022-11-17T03:31:05.734Z,1.30
2022-11-17T03:33:32.991Z,1.30
2022-11-17T03:36:02.260Z,1.17
2022-11-17T03:38:32.085Z,1.50
2022-11-17T03:40:59.151Z,1.60
2022-11-17T03:43:26.255Z,1.33
2022-11-17T03:45:55.321Z,1.20
2022-11-17T03:48:26.465Z,1.30
2022-11-17T03:50:56.949Z,1.30
2022-11-17T03:53:23.416Z,1.03
2022-11-17T03:55:54.756Z,1.17
2022-11-17T03:58:22.213Z,1.27
2022-11-17T04:00:50.652Z,1.20
2022-11-17T04:03:17.444Z,1.10
2022-11-17T04:05:43.658Z,1.30
2022-11-17T04:08:09.836Z,1.07
2022-11-17T04:10:55.985Z,1.10
2022-11-17T04:13:40.337Z,1.40
2022-11-17T04:16:07.169Z,0.90
2022-11-17T04:18:33.994Z,1.30
2022-11-17T04:21:00.175Z,1.30
2022-11-17T04:23:27.310Z,1.13
2022-11-17T04:26:13.189Z,1.10
2022-11-17T04:28:41.205Z,0.90
2022-11-17T04:31:12.276Z,1.30
2022-11-17T04:33:40.323Z,1.10
2022-11-17T04:36:07.005Z,1.33
2022-11-17T04:38:33.595Z,1.37
2022-11-17T04:41:24.002Z,1.00
2022-11-17T04:43:50.373Z,1.00
2022-11-17T04:46:16.887Z,1.30
2022-11-17T04:48:44.023Z,1.00
2022-11-17T04:51:10.332Z,1.10
2022-11-17T04:53:37.065Z,0.90
2022-11-17T04:56:04.021Z,1.00
2022-11-17T04:58:30.264Z,1.00
2022-11-17T05:01:11.439Z,1.00
2022-11-17T05:03:42.273Z,1.00
2022-11-17T05:06:09.412Z,1.33
2022-11-17T05:08:36.616Z,1.10
2022-11-17T05:11:21.665Z,1.10
2022-11-17T05:13:48.802Z,1.30
2022-11-17T05:16:33.434Z,1.20
2022-11-17T05:18:59.620Z,1.13
2022-11-17T05:21:26.412Z,1.23
2022-11-17T05:23:55.063Z,1.63
2022-11-17T05:26:23.093Z,1.43
2022-11-17T05:28:49.416Z,1.20
2022-11-17T05:31:16.182Z,1.47
2022-11-17T05:33:43.194Z,1.17
2022-11-17T05:36:10.120Z,1.00
2022-11-17T05:38:37.009Z,1.10
2022-11-17T05:41:03.402Z,1.30
2022-11-17T05:43:29.540Z,2.63
2022-11-17T05:45:55.685Z,1.40
2022-11-17T05:48:21.856Z,1.40
2022-11-17T05:50:47.999Z,1.50
2022-11-17T05:53:14.166Z,1.10
2022-11-17T05:55:40.924Z,1.53
2022-11-17T05:58:10.852Z,1.30
2022-11-17T06:00:39.222Z,1.30
2022-11-17T06:03:09.288Z,1.33
2022-11-17T06:05:35.615Z,1.43
2022-11-17T06:08:01.758Z,1.47
2022-11-17T06:10:27.927Z,1.90
2022-11-17T06:12:54.695Z,1.40
2022-11-17T06:15:20.897Z,1.60
2022-11-17T06:17:50.025Z,1.63
2022-11-17T06:20:19.721Z,1.50
2022-11-17T06:22:48.497Z,1.67
2022-11-17T06:25:15.391Z,1.40
2022-11-17T06:27:41.649Z,1.50
2022-11-17T06:30:09.215Z,1.57
2022-11-17T06:32:37.504Z,1.57
2022-11-17T06:35:06.417Z,1.70
2022-11-17T06:37:32.560Z,1.80
2022-11-17T06:39:58.754Z,1.70
2022-11-17T06:42:39.517Z,1.50
2022-11-17T06:45:06.860Z,1.40
2022-11-17T06:47:33.649Z,1.40
2022-11-17T06:49:59.820Z,1.50
2022-11-17T06:52:25.974Z,1.60
2022-11-17T06:54:52.167Z,1.60
2022-11-17T06:57:18.377Z,1.53
2022-11-17T06:59:44.604Z,1.90
2022-11-17T07:02:10.865Z,1.73
2022-11-17T07:04:37.706Z,2.07
2022-11-17T07:07:04.073Z,2.00
2022-11-17T07:09:30.367Z,2.00
2022-11-17T07:11:57.218Z,1.40
2022-11-17T07:14:23.408Z,1.70
2022-11-17T07:16:49.600Z,1.83
2022-11-17T07:19:15.810Z,1.50
2022-11-17T07:21:42.658Z,2.00
2022-11-17T07:24:08.874Z,2.20
2022-11-17T07:26:35.086Z,1.73
2022-11-17T07:29:01.270Z,1.83
2022-11-17T07:31:27.513Z,1.90
2022-11-17T07:33:53.727Z,1.77
2022-11-17T07:36:19.976Z,2.03
2022-11-17T07:38:46.870Z,1.73
2022-11-17T07:41:13.878Z,1.93
2022-11-17T07:43:40.189Z,2.20
2022-11-17T07:46:07.734Z,2.17
2022-11-17T07:48:34.127Z,2.00
2022-11-17T07:51:01.141Z,2.20
2022-11-17T07:53:28.125Z,2.43
2022-11-17T07:55:54.989Z,2.40
2022-11-17T07:58:21.239Z,1.60
2022-11-17T08:00:47.495Z,1.90
2022-11-17T08:03:13.873Z,2.13
2022-11-17T08:05:43.711Z,1.50
2022-11-17T08:08:12.586Z,2.20
2022-11-17T08:10:38.787Z,2.13
2022-11-17T08:13:06.744Z,1.70
2022-11-17T08:15:33.006Z,1.83
2022-11-17T08:18:00.235Z,1.80
2022-11-17T08:20:27.938Z,1.67
2022-11-17T08:22:54.542Z,1.30
2022-11-17T08:25:22.056Z,1.10
2022-11-17T08:27:51.153Z,1.10
2022-11-17T08:30:18.537Z,1.27
2022-11-17T08:32:48.784Z,1.37
2022-11-17T08:35:15.091Z,1.57
2022-11-17T08:37:41.337Z,1.27
2022-11-17T08:40:08.560Z,1.00
2022-11-17T08:42:34.810Z,1.30
2022-11-17T08:45:00.976Z,1.00
2022-11-17T08:47:27.800Z,1.47
2022-11-17T08:49:53.977Z,1.30
2022-11-17T08:52:20.726Z,1.03
2022-11-17T08:54:46.964Z,0.90
2022-11-17T08:57:13.312Z,0.97
2022-11-17T08:59:39.526Z,1.03
2022-11-17T09:02:05.696Z,1.33
2022-11-17T09:04:32.505Z,0.93
2022-11-17T09:06:58.736Z,1.10
2022-11-17T09:09:25.011Z,1.00
2022-11-17T09:11:51.233Z,1.10
2022-11-17T09:14:17.406Z,1.00
2022-11-17T09:16:43.571Z,1.00
2022-11-17T09:19:09.802Z,0.80
2022-11-17T09:21:36.581Z,0.90
2022-11-17T09:24:03.088Z,1.10
2022-11-17T09:26:29.326Z,1.00
2022-11-17T09:28:55.550Z,0.90
2022-11-17T09:31:21.972Z,0.90
2022-11-17T09:33:48.671Z,0.87
2022-11-17T09:36:16.021Z,0.80
2022-11-17T09:38:43.021Z,0.80
2022-11-17T09:41:21.315Z,1.17
2022-11-17T09:43:51.181Z,1.20
2022-11-17T09:46:22.445Z,0.70
2022-11-17T09:48:53.439Z,0.47
2022-11-17T09:51:21.285Z,0.90
2022-11-17T09:53:51.982Z,0.80
2022-11-17T09:56:18.214Z,0.70
2022-11-17T09:58:47.500Z,0.80
2022-11-17T10:01:15.109Z,1.10
2022-11-17T10:03:45.980Z,0.77
2022-11-17T10:06:15.888Z,0.77
2022-11-17T10:08:46.252Z,0.80
2022-11-17T10:11:34.205Z,1.03
2022-11-17T10:14:11.854Z,1.00
2022-11-17T10:16:39.707Z,1.10
2022-11-17T10:19:13.526Z,1.03
2022-11-17T10:21:39.965Z,1.00
2022-11-17T10:24:06.709Z,1.00
2022-11-17T10:26:44.059Z,1.30
2022-11-17T10:29:12.186Z,0.97
2022-11-17T10:31:42.858Z,0.70
2022-11-17T10:34:10.613Z,0.90
2022-11-17T10:36:36.923Z,0.70
2022-11-17T10:39:03.460Z,0.70
2022-11-17T10:41:35.949Z,0.70
2022-11-17T10:44:04.597Z,0.73
2022-11-17T10:46:40.615Z,0.97
2022-11-17T10:49:23.913Z,0.87
2022-11-17T10:52:04.652Z,1.00
2022-11-17T10:54:31.172Z,0.70
2022-11-17T10:56:58.539Z,1.00
2022-11-17T10:59:28.865Z,0.60
2022-11-17T11:01:55.200Z,0.87
2022-11-17T11:04:29.835Z,0.70
2022-11-17T11:07:10.427Z,0.80
2022-11-17T11:09:41.135Z,0.87
2022-11-17T11:12:11.207Z,0.83
2022-11-17T11:14:40.159Z,1.07
2022-11-17T11:17:10.658Z,0.60
2022-11-17T11:19:36.959Z,0.93
2022-11-17T11:22:20.819Z,0.70
2022-11-17T11:24:51.279Z,1.10
2022-11-17T11:27:36.933Z,1.33
2022-11-17T11:30:06.113Z,1.40
2022-11-17T11:32:42.550Z,1.20
2022-11-17T11:35:27.741Z,1.07
2022-11-17T11:37:58.969Z,0.60
2022-11-17T11:40:27.300Z,0.43
2022-11-17T11:42:56.975Z,0.77
2022-11-17T11:45:30.097Z,0.70
2022-11-17T11:48:18.981Z,0.63
2022-11-17T11:50:53.769Z,0.77
2022-11-17T11:53:24.985Z,0.60
2022-11-17T11:56:04.468Z,0.87
2022-11-17T11:58:30.623Z,0.80
2022-11-17T12:01:05.219Z,0.83
2022-11-17T12:03:34.609Z,1.00
2022-11-17T12:06:22.130Z,0.80
2022-11-17T12:08:54.714Z,1.00
2022-11-17T12:11:39.632Z,0.80
2022-11-17T12:14:06.056Z,1.10
2022-11-17T12:16:34.341Z,0.70
2022-11-17T12:19:00.873Z,1.10
2022-11-17T12:21:27.314Z,1.10
2022-11-17T12:24:13.692Z,1.30
2022-11-17T12:26:40.411Z,0.90
2022-11-17T12:29:25.253Z,0.70
2022-11-17T12:31:52.912Z,1.03
2022-11-17T12:34:30.404Z,1.10
2022-11-17T12:37:16.845Z,1.17
2022-11-17T12:39:57.233Z,1.10
2022-11-17T12:42:23.428Z,1.20
2022-11-17T12:44:55.541Z,1.37
2022-11-17T12:47:23.818Z,1.23
2022-11-17T12:50:31.320Z,0.93
2022-11-17T12:53:24.017Z,1.10
2022-11-17T12:56:09.102Z,1.10
2022-11-17T12:58:55.084Z,0.93
2022-11-17T13:01:31.091Z,1.10
2022-11-17T13:04:02.312Z,0.73
2022-11-17T13:06:35.625Z,1.10
2022-11-17T13:09:05.448Z,1.37
2022-11-17T13:11:31.690Z,1.77
2022-11-17T13:14:12.270Z,2.23
2022-11-17T13:16:44.037Z,1.33
2022-11-17T13:19:29.281Z,0.90
2022-11-17T13:21:59.104Z,1.10
2022-11-17T13:24:30.583Z,1.10
2022-11-17T13:26:58.598Z,0.93
2022-11-17T13:29:24.774Z,1.00
2022-11-17T13:32:05.089Z,0.60
2022-11-17T13:34:32.308Z,0.70
2022-11-17T13:37:00.004Z,0.63
2022-11-17T13:39:28.632Z,0.90
2022-11-17T13:41:55.601Z,0.87
2022-11-17T13:44:23.709Z,0.80
2022-11-17T13:46:50.063Z,0.93
2022-11-17T13:49:35.674Z,0.63
2022-11-17T13:52:02.021Z,2.30
2022-11-17T13:54:28.497Z,0.97
2022-11-17T13:56:56.132Z,0.83
2022-11-17T13:59:25.360Z,0.90
2022-11-17T14:02:22.765Z,1.00
2022-11-17T14:05:05.769Z,1.90
2022-11-17T14:07:33.344Z,2.90
2022-11-17T14:10:12.792Z,2.77
2022-11-17T14:12:39.170Z,1.77
2022-11-17T14:15:13.389Z,1.70
2022-11-17T14:17:39.689Z,2.40
2022-11-17T14:20:26.499Z,2.40
2022-11-17T14:23:00.865Z,1.57
2022-11-17T14:25:27.149Z,3.10
2022-11-17T14:27:53.502Z,2.80
2022-11-17T14:30:19.771Z,3.40
2022-11-17T14:32:45.991Z,3.83
2022-11-17T14:35:13.749Z,3.20
2022-11-17T14:37:41.050Z,2.43
2022-11-17T14:40:12.799Z,1.40
2022-11-17T14:42:40.561Z,1.87
2022-11-17T14:45:08.299Z,1.53
2022-11-17T14:47:34.987Z,2.10
2022-11-17T14:50:01.155Z,1.33
2022-11-17T14:52:27.283Z,1.17
2022-11-17T14:54:54.081Z,1.10
2022-11-17T14:57:20.254Z,1.07
2022-11-17T14:59:46.385Z,0.90
2022-11-17T15:02:12.633Z,1.03
2022-11-17T15:04:55.730Z,1.10
2022-11-17T15:07:22.422Z,1.27
2022-11-17T15:09:48.582Z,1.50
2022-11-17T15:12:15.578Z,1.07
2022-11-17T15:14:41.769Z,1.30
2022-11-17T15:17:13.905Z,1.60
2022-11-17T15:19:40.554Z,1.10
2022-11-17T15:22:06.874Z,1.40
2022-11-17T15:24:33.000Z,1.37
2022-11-17T15:26:59.305Z,1.57
2022-11-17T15:29:26.145Z,1.90
2022-11-17T15:31:52.956Z,1.43
2022-11-17T15:34:20.617Z,1.90
2022-11-17T15:36:47.264Z,1.43
2022-11-17T15:39:14.297Z,1.43
2022-11-17T15:41:40.839Z,1.23
2022-11-17T15:44:07.168Z,1.57
2022-11-17T15:46:34.106Z,1.50
2022-11-17T15:49:00.291Z,1.17
2022-11-17T15:51:27.154Z,1.20
2022-11-17T15:53:56.467Z,1.10
2022-11-17T15:56:24.153Z,1.43
2022-11-17T15:58:54.363Z,1.27
2022-11-17T16:01:26.060Z,1.00
2022-11-17T16:03:56.820Z,1.40
2022-11-17T16:06:23.495Z,1.00
2022-11-17T16:08:49.645Z,1.07
2022-11-17T16:11:15.869Z,1.20
2022-11-17T16:13:42.102Z,2.10
2022-11-17T16:16:11.871Z,1.37
2022-11-17T16:18:38.279Z,1.13
2022-11-17T16:21:06.470Z,1.20
2022-11-17T16:23:37.412Z,1.97
2022-11-17T16:26:03.770Z,1.40
2022-11-17T16:28:29.936Z,1.30
2022-11-17T16:30:56.117Z,2.30
2022-11-17T16:33:22.334Z,2.17
2022-11-17T16:35:48.481Z,1.87
2022-11-17T16:38:16.682Z,1.80
2022-11-17T16:40:44.073Z,1.50
2022-11-17T16:43:11.065Z,1.70
2022-11-17T16:45:41.116Z,1.50
2022-11-17T16:48:08.323Z,1.50
2022-11-17T16:50:35.932Z,1.53
2022-11-17T16:53:02.185Z,1.57
2022-11-17T16:55:29.037Z,1.40
2022-11-17T16:57:55.192Z,1.47
2022-11-17T17:00:21.563Z,1.47
2022-11-17T17:02:48.624Z,1.40
2022-11-17T17:05:15.042Z,1.70
2022-11-17T17:07:41.344Z,1.37
2022-11-17T17:10:08.225Z,1.57
2022-11-17T17:12:35.156Z,1.70
2022-11-17T17:15:01.388Z,1.20
2022-11-17T17:17:27.618Z,1.27
2022-11-17T17:19:54.102Z,1.77
2022-11-17T17:22:20.530Z,1.60
2022-11-17T17:24:46.754Z,1.73
2022-11-17T17:27:12.993Z,1.30
2022-11-17T17:29:39.823Z,1.87
2022-11-17T17:32:05.989Z,1.53
2022-11-17T17:34:32.218Z,1.47
2022-11-17T17:36:58.397Z,1.40
2022-11-17T17:39:24.643Z,1.50
2022-11-17T17:41:50.818Z,1.43
2022-11-17T17:44:18.568Z,1.80
2022-11-17T17:46:46.276Z,2.13
2022-11-17T17:49:12.788Z,1.70
2022-11-17T17:51:42.444Z,1.90
2022-11-17T17:54:13.874Z,1.67
2022-11-17T17:56:40.508Z,2.00
2022-11-17T17:59:07.307Z,1.97
2022-11-17T18:01:33.636Z,2.13
2022-11-17T18:04:04.183Z,2.30
2022-11-17T18:06:31.342Z,2.33
2022-11-17T18:08:58.293Z,1.90
2022-11-17T18:11:25.069Z,2.03
2022-11-17T18:13:52.837Z,2.13
2022-11-17T18:16:22.374Z,1.47
2022-11-17T18:18:49.557Z,1.57
2022-11-17T18:21:18.206Z,1.40
2022-11-17T18:23:44.846Z,1.80
2022-11-17T18:26:14.986Z,1.77
2022-11-17T18:28:42.079Z,1.60
2022-11-17T18:31:08.844Z,1.93
2022-11-17T18:33:35.757Z,1.70
2022-11-17T18:36:03.355Z,1.40
2022-11-17T18:38:31.777Z,1.60
2022-11-17T18:41:05.603Z,1.77
2022-11-17T18:43:33.506Z,1.70
2022-11-17T18:46:01.917Z,1.70
2022-11-17T18:48:30.616Z,1.97
2022-11-17T18:51:18.265Z,2.40
2022-11-17T18:53:44.126Z,1.83
2022-11-17T18:56:12.005Z,1.93
2022-11-17T18:58:39.461Z,2.20
2022-11-17T19:01:07.523Z,2.33
2022-11-17T19:03:34.103Z,1.93
2022-11-17T19:06:00.522Z,2.13
2022-11-17T19:08:28.821Z,2.00
2022-11-17T19:10:58.918Z,2.67
2022-11-17T19:13:29.628Z,2.33
2022-11-17T19:15:56.062Z,2.10
2022-11-17T19:18:22.305Z,2.30
2022-11-17T19:20:49.031Z,2.23
2022-11-17T19:23:15.605Z,2.50
2022-11-17T19:25:44.680Z,2.30
2022-11-17T19:28:12.260Z,2.30
2022-11-17T19:30:38.943Z,2.50
2022-11-17T19:33:05.513Z,2.20
2022-11-17T19:35:32.011Z,2.43
2022-11-17T19:37:58.619Z,2.87
2022-11-17T19:40:25.290Z,2.30
2022-11-17T19:42:52.121Z,2.43
2022-11-17T19:45:20.277Z,2.40
2022-11-17T19:47:46.837Z,2.17
2022-11-17T19:50:14.216Z,2.00
2022-11-17T19:52:40.860Z,2.60
2022-11-17T19:55:07.869Z,2.30
2022-11-17T19:57:34.209Z,2.60
2022-11-17T20:00:01.131Z,2.33
2022-11-17T20:02:28.649Z,2.77
2022-11-17T20:04:55.004Z,2.60
2022-11-17T20:07:21.449Z,2.87
2022-11-17T20:09:48.421Z,2.50
2022-11-17T20:12:14.668Z,2.10
2022-11-17T20:14:40.835Z,2.30
2022-11-17T20:17:07.230Z,2.60
2022-11-17T20:19:34.089Z,2.73
2022-11-17T20:22:00.301Z,2.30
2022-11-17T20:24:26.546Z,2.60
2022-11-17T20:26:52.764Z,2.80
2022-11-17T20:29:19.394Z,2.80
2022-11-17T20:31:45.752Z,2.63
2022-11-17T20:34:12.473Z,3.20
2022-11-17T20:36:39.297Z,2.43
2022-11-17T20:39:06.778Z,2.70
2022-11-17T20:41:33.222Z,3.00
2022-11-17T20:44:01.016Z,3.27
2022-11-17T20:46:27.412Z,2.57
2022-11-17T20:48:53.901Z,3.50
2022-11-17T20:51:22.429Z,3.03
2022-11-17T20:53:49.546Z,3.13
2022-11-17T20:56:16.300Z,3.20
2022-11-17T20:58:42.636Z,4.10
2022-11-17T21:01:09.912Z,3.67
2022-11-17T21:03:36.423Z,3.30
2022-11-17T21:06:03.815Z,3.73
2022-11-17T21:08:31.133Z,3.50
2022-11-17T21:10:59.307Z,3.10
2022-11-17T21:13:25.943Z,3.40
2022-11-17T21:16:06.438Z,3.60
2022-11-17T21:18:32.687Z,3.30
2022-11-17T21:20:59.056Z,3.03
2022-11-17T21:23:25.566Z,3.60
2022-11-17T21:25:51.715Z,3.53
2022-11-17T21:28:18.511Z,4.10
2022-11-17T21:30:44.896Z,3.23
2022-11-17T21:33:11.045Z,3.80
2022-11-17T21:35:37.194Z,3.50
2022-11-17T21:38:03.457Z,3.30
2022-11-17T21:40:30.212Z,3.77
2022-11-17T21:42:58.329Z,2.97
2022-11-17T21:45:25.148Z,3.40
2022-11-17T21:47:56.525Z,3.47
2022-11-17T21:50:25.309Z,3.10
2022-11-17T21:52:51.481Z,3.30
2022-11-17T21:55:17.640Z,3.23
2022-11-17T21:57:43.882Z,3.57
2022-11-17T22:00:10.864Z,3.03
2022-11-17T22:02:37.654Z,3.70
2022-11-17T22:05:04.304Z,3.17
2022-11-17T22:07:30.479Z,3.60
2022-11-17T22:09:56.754Z,2.97
2022-11-17T22:12:22.966Z,2.90
2022-11-17T22:14:49.432Z,2.83
2022-11-17T22:17:15.578Z,2.97
2022-11-17T22:19:42.381Z,2.77
2022-11-17T22:22:08.533Z,2.47
2022-11-17T22:24:34.700Z,2.97
2022-11-17T22:27:00.843Z,2.97
2022-11-17T22:29:27.019Z,2.70
2022-11-17T22:31:53.256Z,2.57
2022-11-17T22:34:19.465Z,2.90
2022-11-17T22:36:46.251Z,2.63
2022-11-17T22:39:12.525Z,2.97
2022-11-17T22:41:38.729Z,2.70
2022-11-17T22:44:05.508Z,2.83
2022-11-17T22:46:31.794Z,2.50
2022-11-17T22:48:58.237Z,2.80
2022-11-17T22:51:42.764Z,2.33
2022-11-17T22:54:09.869Z,2.73
2022-11-17T22:56:36.715Z,2.37
2022-11-17T22:59:02.965Z,2.60
2022-11-17T23:01:29.207Z,2.43
2022-11-17T23:03:55.447Z,2.63
2022-11-17T23:06:21.942Z,2.63
2022-11-17T23:08:48.104Z,2.30
2022-11-17T23:11:36.095Z,3.03
2022-11-17T23:14:01.074Z,2.30
2022-11-17T23:16:27.274Z,2.57
2022-11-17T23:18:54.280Z,2.50
2022-11-17T23:21:21.153Z,3.20
2022-11-17T23:23:47.332Z,2.23
2022-11-17T23:26:14.523Z,2.17
2022-11-17T23:28:41.581Z,2.53
2022-11-17T23:31:09.670Z,2.53
2022-11-17T23:33:37.523Z,2.67
2022-11-17T23:36:05.190Z,2.50
2022-11-17T23:38:31.905Z,2.53
2022-11-17T23:40:59.678Z,2.60
2022-11-17T23:43:26.758Z,2.27
2022-11-17T23:45:52.895Z,2.30
2022-11-17T23:48:19.033Z,2.67
2022-11-17T23:50:45.195Z,2.33
2022-11-17T23:53:11.384Z,2.30
2022-11-17T23:55:37.571Z,2.50
2022-11-17T23:58:03.781Z,2.20
